Alafaya, FL

7:27 PM EDT on September 01, 2014 (GMT -0400)
UCF Area / WUCF-FM | Change Station
CLOSE
Current Station
Personal Weather Station
Location: Orlando, FL
Elevation: 85 ft
Nearby Weather Stations

Elev 85 ft 28.60 °N, 81.20 °W | Updated 4 seconds ago

Partly Cloudy
Partly Cloudy
86.4 °F
Feels Like 94 °F
N
3.4
Wind Variable Wind from SE
Gusts 5.8 mph

Today
High -- | Low -- °F
--% Chance of Precip.
Yesterday
High -- | Low -- °F
Precip. -- in
7:02 AM 7:46 PM
Waxing Crescent, 45% visible
Pressure 30.06 in
Visibility 10.0 miles
Clouds Mostly Cloudy 4000 ft
Overcast 4700 ft
Heat Index 94 °F
Dew Point 74 °F
Humidity 66%
Rainfall 0.00 in
Snow Depth Not available.
UV 0 out of 12
Pollen 7.80 out of 12
Air Quality Not available.
Flu Activity Not available.
METAR KORL 012253Z 19007KT 10SM BKN040 OVC047 30/23 A3005 RMK AO2 SLP179 T03000233

More Conditions Fewer Conditions

Pressure 30.06 in
Visibility 10.0 miles
Clouds Mostly Cloudy 4000 ft
Overcast 4700 ft
Heat Index 94 °F
Dew Point 74 °F
Humidity 66%
Rainfall 0.00 in
Snow Depth Not available.
UV 0 out of 12
Pollen 7.80 out of 12
Air Quality Not available.
Flu Activity Not available.
METAR KORL 012253Z 19007KT 10SM BKN040 OVC047 30/23 A3005 RMK AO2 SLP179 T03000233

More Conditions Fewer Conditions

Nowcast | as of 7:19 PM EDT on September 1, 2014

Through mid evening...only a slight chance for a shower or storm exists over east central Florida. Isolated activity will remain possible over the coastal waters with the deep onshore flow. Additional details...including graphics are available online at: http://www.Srh.NOAA.Gov/mlb/blog.Php

×

10-Day Weather Forecast

Almanac

Astronomy

Sep. 01, 2014 Rise Set
Actual Time 7:02 AM EDT 7:46 PM EDT
Civil Twilight 6:38 AM EDT 8:10 PM EDT
Nautical Twilight 6:10 AM EDT 8:38 PM EDT
Astronomical Twilight 5:41 AM EDT 9:07 PM EDT
Moon 1:14 PM EDT No Moon Set
Length of Visible Light 13h 31m
Length of Day
12h 43m
Tomorrow will be 1m 37s shorter.
Waxing Crescent, 45% of the Moon is Illuminated
Today
Waxing Crescent
Sep 2
First Quarter
Sep 8
Full
Sep 15
Last Quarter
Sep 24
New

Today's Extremes

State Highs State Lows

Community

WunderPhotos

Upload Photos

1,749,430 photos uploaded!

Nearby

Air Quality

  Air Quality AQ Index Pollutant
Yesterday Moderate
PM2.5
Yesterday Good
OZONE
Monday Good
OZONE
Tuesday Good
OZONE

Snow Depth

Station Depth Elevation
No new snow has been reported.

Earthquake Activity

City Distance Mag. Time & Date
No recent earthquake activity has been reported nearby.
Minimum magnitude displayed is 2.5.

Coastal Water Temperatures

Place Temperature
Trident Pier, FL 87.1 °F
Fort Myers, FL 89.1 °F
Lake Worth, FL 88.0 °F

Nearby Weather Stations